Scotland, SD

4:38 PM CDT on March 29, 2015 (GMT -0500)
Scotland, SD | | Change Station
CLOSE
Current Station
Personal Weather Station
Location: Scotland, SD
Elevation: 1362 ft
Nearby Weather Stations
Active Advisory: Fire Weather Warning Active Notice: Public Information Statement

Elev 1362 ft 43.15 °N, 97.71 °W | Updated 40 seconds ago

Clear
Clear
61.1 °F
Feels Like 61.1 °F
N
7.0
Wind Variable Wind from NW
Gusts 26.0 mph

Today
High -- | Low -- °F
--% Chance of Precip.
Yesterday
High -- | Low -- °F
Precip. -- in
7:18 AM 7:53 PM
Waxing Gibbous, 74% visible
Pressure 30.04 in
Visibility 10.0 miles
Clouds Clear
Dew Point 22 °F
Humidity 22%
Rainfall 0.00 in
Snow Depth Not available.
UV 4 out of 12
Pollen 6.60 out of 12
Air Quality Not available.
Flu Activity Not available.
METAR KYKN 292135Z AUTO 33021G30KT 10SM CLR 16/M06 A3004 RMK AO1

More Conditions Fewer Conditions

Pressure 30.04 in
Visibility 10.0 miles
Clouds Clear
Dew Point 22 °F
Humidity 22%
Rainfall 0.00 in
Snow Depth Not available.
UV 4 out of 12
Pollen 6.60 out of 12
Air Quality Not available.
Flu Activity Not available.
METAR KYKN 292135Z AUTO 33021G30KT 10SM CLR 16/M06 A3004 RMK AO1

More Conditions Fewer Conditions

10-Day Weather Forecast

Almanac

Astronomy

Mar. 29, 2015 Rise Set
Actual Time
Civil Twilight
Nautical Twilight
Astronomical Twilight
Moon
Length of Visible Light
Length of Day
Tomorrow will be .
, % of the Moon is Illuminated

Today's Extremes

State Highs State Lows

Community

WunderPhotos

Upload Photos

1,809,355 photos uploaded!

WunderBlogs® & News

Nearby

Air Quality

  Air Quality AQ Index Pollutant
Not available.

Snow Depth

Station Depth Elevation

Earthquake Activity

City Distance Mag. Time & Date
Minimum magnitude displayed is 2.5.

Coastal Water Temperatures

Place Temperature

Stations

Nearby Weather Stations

Station Location Temp. Windchill Dew Point Humidity Wind Precip. Elev Updated Type
                   
Fire Weather Warning
Statement as of 11:41 AM CDT on March 29, 2015

... Red flag warning remains in effect until 7 PM CDT this evening
for strong wind and low relative humidity for fire weather zones
249... 255... 256... 258 and 300...

* affected area... fire weather zone 249. Fire weather zone 255.
Fire weather zone 256. Fire weather zone 258. Fire weather
zone 300.

* Wind... northwest winds 25 to 35 mph... with gusty early
afternoon of 45 to 50 mph.

* Humidity... minimum values will vary from around 20 percent in
Lower Brule areas... to 25 to 30 percent east of the James
Valley toward northwest Iowa.

* Impacts... any fires that develop will likely spread rapidly.
Outdoor burning is not recommended.

Precautionary/preparedness actions...

A red flag warning means that critical fire weather conditions
are either occurring now... or will shortly. A combination of
strong winds... low relative humidity... and warm temperatures can
contribute to extreme fire behavior.